LEZLLEJR

Guest
Details From LEZL - Sevilla
To LEJR - Jerez
Flight Number -
Tags generated
Created
Modified
Stats Distance 50 nm / 92 km
Max Altitude 2,200 ft / 671 m
Waypoints 3
Social Downloads 1
Likes 0
Share VATSIM

Download

Looking for another format? Having issues loading an existing format? Contact us
Advertisement - Login to hide

Notes

Basic altitude profile: - Ascent Rate: 2500ft/min - Ascent Speed: 250kts - Cruise Altitude: 35000ft - Cruise Speed: 420kts - Descent Rate: 1500ft/min - Descent Speed: 250kts Options: - Use NATs: yes - Use PACOTS: yes - Use low airways: yes - Use high airways: yes

Route

LEZL SVL LEJR

ID Type Via Altitude Latitude Longitude Leg Dist Tot Dist Heading (true) Name
O LEZL APT - 0 ft / 0 m 37.41794˚ -5.89309˚ - 0 nm - Sevilla
SVL VOR - 2,200 ft / 671 m 37.42758˚ -5.76222˚ 6 nm 6 nm 85° / 85° SEVILLA VOR-DME
O LEJR APT - 0 ft / 0 m 36.74462˚ -6.06011˚ 43 nm 49 nm 199° / 199° Jerez

Altitude Profile

Advertisement - Login to hide

LEZL

Details ICAO LEZL (SVQ)
Name Sevilla
Region Spain
Timezone Europe/Madrid (UTC+2.0)
Stats Elevation 111 ft / 34 m (AMSL)
Location 37.417939° -5.893093°
Runways 1
Magnetic Variation 1.244° W

METAR

LEZL 251930Z 23011KT 200V260 CAVOK 19/13 Q1013 NOSIG

Decode

TAF

TAF LEZL 251400Z 2515/2615 22008KT 9999 FEW030 TX23/2515Z TN14/2606Z PROB30 TEMPO 2602/2606 BKN014

Decode

Departure Runways

ID Width Length Bearing (true) Bearing (mag) Surface Threshold Offset Overrun Length
09 148 ft / 45 m 11,008 ft / 3,355 m 89.75° 90.99° Asphalt 0 ft / 0 m 0 ft / 0 m
27 148 ft / 45 m 11,008 ft / 3,355 m 269.77° 271.01° Asphalt 0 ft / 0 m 0 ft / 0 m

LEJR

Details ICAO LEJR (XRY)
Name Jerez
Region Spain
Timezone Europe/Madrid (UTC+2.0)
Stats Elevation 93 ft / 28 m (AMSL)
Location 36.744622° -6.060110°
Runways 2
Magnetic Variation 1.287° W

METAR

LEJR 251930Z 19008KT 9999 FEW045 18/14 Q1013

Decode

TAF

TAF LEJR 251700Z 2518/2618 22010KT 9999 FEW030 TX25/2614Z TN13/2606Z BECMG 2519/2522 15004KT BECMG 2612/2614 27010KT

Decode

Destination Runways

ID Width Length Bearing (true) Bearing (mag) Surface Threshold Offset Overrun Length
02 148 ft / 45 m 7,559 ft / 2,304 m 21.34° 22.63° Asphalt 0 ft / 0 m 0 ft / 0 m
03 148 ft / 45 m 7,559 ft / 2,304 m 21.34° 22.63° Asphalt 0 ft / 0 m 0 ft / 0 m
20 148 ft / 45 m 7,559 ft / 2,304 m 201.34° 202.63° Asphalt 0 ft / 0 m 0 ft / 0 m
21 148 ft / 45 m 7,559 ft / 2,304 m 201.34° 202.63° Asphalt 0 ft / 0 m 0 ft / 0 m

Approach Navaids

Runway Type Ident Frequency Range Bearing (true) Bearing (mag) Slope Elevation
20 Localiser IJR 108.90 MHz 18 nm / 33 km 201.34° 202.63° - 68 ft / 21 m (AMSL)
20 Glidescope IJR 108.90 MHz 10 nm / 19 km 201.34° 202.63° 3.00° 93 ft / 28 m (AMSL)
20 DME IJR 108.90 MHz 18 nm / 33 km - - - 93 ft / 28 m (AMSL)

Popular Alternatives